Time;durP1;ratioP1;P1;durP2;ratioP2;P2;SDS_P1;SDS_P2;PMS_P1;PMS_P2;Temp;Humidity;BMP_temperature;BMP_pressure;BME280_temperature;BME280_humidity;BME280_pressure;Samples;Min_cycle;Max_cycle;Signal;HPM_P1;HPM_P2
2023/06/06 00:00:11;;;;;;;5.30;1.85;;;;;;;12.28;62.88;101096.69;4982869;28;20152;-46
2023/06/06 00:02:42;;;;;;;4.00;1.83;;;;;;;12.26;62.57;101101.88;4981478;28;20050;-47
2023/06/06 00:05:12;;;;;;;5.05;2.50;;;;;;;12.26;62.29;101099.28;4981480;28;20058;-50
2023/06/06 00:07:40;;;;;;;8.10;2.00;;;;;;;12.26;62.34;101094.09;4982598;28;20054;-51
2023/06/06 00:10:08;;;;;;;8.57;2.33;;;;;;;12.25;63.59;101107.94;4985012;28;20065;-49
2023/06/06 00:12:36;;;;;;;5.90;1.90;;;;;;;12.25;63.12;101107.06;4981494;28;20061;-48
2023/06/06 00:15:05;;;;;;;6.20;2.20;;;;;;;12.21;62.78;101107.06;4981103;28;20057;-48
2023/06/06 00:17:32;;;;;;;4.65;2.30;;;;;;;12.20;62.68;101117.44;5001619;28;20490;-49
2023/06/06 00:19:58;;;;;;;6.28;2.20;;;;;;;12.20;63.53;101114.84;4987315;28;20057;-47
2023/06/06 00:22:25;;;;;;;9.57;2.25;;;;;;;12.21;63.34;101111.38;4995383;28;20136;-49
2023/06/06 00:24:52;;;;;;;6.15;2.00;;;;;;;12.19;63.82;101119.16;5006611;28;20049;-46
2023/06/06 00:27:20;;;;;;;5.53;2.92;;;;;;;12.19;63.12;101113.06;5004935;28;20068;-48
2023/06/06 00:29:47;;;;;;;8.20;1.75;;;;;;;12.18;62.52;101113.94;5003474;28;20044;-50
2023/06/06 00:32:13;;;;;;;3.80;1.60;;;;;;;12.19;63.22;101115.66;4996859;28;20042;-47
2023/06/06 00:34:40;;;;;;;5.53;2.50;;;;;;;12.21;63.23;101112.25;4992196;28;20046;-47
2023/06/06 00:37:07;;;;;;;6.00;2.22;;;;;;;12.22;63.27;101113.09;4998914;28;20161;-46
2023/06/06 00:39:33;;;;;;;5.88;1.70;;;;;;;12.20;63.80;101120.88;4996805;28;20050;-49
2023/06/06 00:42:00;;;;;;;7.45;2.33;;;;;;;12.18;63.96;101121.72;5004565;28;20046;-51
2023/06/06 00:44:27;;;;;;;5.45;1.92;;;;;;;12.18;63.07;101121.72;5001300;28;20057;-48
2023/06/06 00:46:53;;;;;;;3.70;1.80;;;;;;;12.17;64.32;101120.00;5002340;28;20041;-46
2023/06/06 00:49:21;;;;;;;5.53;2.40;;;;;;;12.18;64.36;101121.72;4999854;28;20314;-46
2023/06/06 00:51:48;;;;;;;7.80;2.47;;;;;;;12.18;63.58;101111.34;5000505;28;20049;-47
2023/06/06 00:54:17;;;;;;;4.18;1.77;;;;;;;12.17;63.27;101109.59;4999709;28;20054;-49
2023/06/06 00:56:45;;;;;;;5.90;1.80;;;;;;;12.13;63.78;101113.03;5002370;28;20046;-48
2023/06/06 00:59:13;;;;;;;5.45;2.00;;;;;;;12.13;63.10;101107.84;4999079;28;20057;-51
2023/06/06 01:01:41;;;;;;;5.38;1.80;;;;;;;12.11;64.39;101109.56;5002968;28;20050;-50
2023/06/06 01:04:08;;;;;;;6.28;1.73;;;;;;;12.14;64.48;101104.38;4996912;28;20046;-51
2023/06/06 01:06:37;;;;;;;5.25;2.00;;;;;;;12.12;64.07;101093.13;5004464;28;20050;-46
2023/06/06 01:09:06;;;;;;;6.78;2.17;;;;;;;12.11;64.24;101104.34;5003580;28;20453;-47
2023/06/06 01:11:48;;;;;;;4.53;1.92;;;;;;;12.09;64.64;101096.56;4996780;28;20046;-50
2023/06/06 01:14:55;;;;;;;4.85;1.75;;;;;;;12.02;64.75;101111.19;5000589;28;20042;-47
2023/06/06 01:17:25;;;;;;;7.15;1.98;;;;;;;12.06;64.54;101107.78;4993540;28;20088;-48
2023/06/06 01:19:56;;;;;;;6.65;2.47;;;;;;;12.08;64.38;101111.28;4994631;28;20100;-48
2023/06/06 01:22:27;;;;;;;8.05;2.22;;;;;;;12.06;64.89;101105.19;5003450;28;20100;-51
2023/06/06 01:24:56;;;;;;;5.88;2.05;;;;;;;12.05;64.01;101110.34;4999901;28;20053;-47
2023/06/06 01:27:23;;;;;;;6.18;4.03;;;;;;;12.01;64.96;101104.25;4997689;28;20601;-48
2023/06/06 01:29:50;;;;;;;6.30;1.80;;;;;;;12.01;65.27;101104.25;4998468;28;20490;-46
2023/06/06 01:32:46;;;;;;;4.30;1.73;;;;;;;11.99;64.54;101102.50;5001881;28;20053;-46
2023/06/06 01:35:23;;;;;;;5.22;1.85;;;;;;;11.99;64.50;101105.97;4998311;28;20477;-46
2023/06/06 01:40:35;;;;;;;5.15;2.08;;;;;;;12.01;64.23;101099.06;5014965;28;20430;-52
2023/06/06 01:43:03;;;;;;;6.38;2.35;;;;;;;12.01;64.87;101093.88;4986170;28;20065;-48
2023/06/06 01:45:33;;;;;;;6.00;1.98;;;;;;;11.99;64.11;101082.59;4980617;28;20773;-50
2023/06/06 01:48:00;;;;;;;5.90;2.20;;;;;;;11.98;64.16;101083.47;4975444;28;20043;-51
2023/06/06 01:50:27;;;;;;;6.15;2.25;;;;;;;11.98;64.25;101083.47;4982026;28;20425;-49
2023/06/06 01:52:54;;;;;;;9.60;2.53;;;;;;;12.00;65.15;101076.56;4980294;28;20047;-52
2023/06/06 01:55:21;;;;;;;4.10;2.20;;;;;;;11.93;64.67;101070.44;4982572;28;20074;-48
2023/06/06 01:57:48;;;;;;;8.95;3.28;;;;;;;11.94;64.88;101076.50;4980951;28;20410;-46
2023/06/06 02:00:16;;;;;;;5.43;2.22;;;;;;;11.94;64.15;101085.19;4976680;28;20454;-49
2023/06/06 02:02:43;;;;;;;5.35;1.75;;;;;;;11.91;64.44;101086.84;4980097;28;20050;-48
2023/06/06 02:05:09;;;;;;;6.78;2.60;;;;;;;11.89;64.83;101086.00;4978470;28;20146;-46
2023/06/06 02:07:37;;;;;;;6.22;2.22;;;;;;;11.85;65.34;101076.44;4981062;28;20059;-49
2023/06/06 02:10:04;;;;;;;4.78;2.10;;;;;;;11.81;66.17;101081.59;4977728;28;20121;-46
2023/06/06 02:12:32;;;;;;;5.20;2.13;;;;;;;11.82;65.88;101072.06;4977444;28;20121;-48
2023/06/06 02:15:00;;;;;;;5.05;2.67;;;;;;;11.82;64.90;101079.84;4981893;28;20052;-50
2023/06/06 02:17:27;;;;;;;5.75;2.65;;;;;;;11.81;65.82;101075.53;4974968;28;20042;-48
2023/06/06 02:19:54;;;;;;;6.40;2.53;;;;;;;11.81;65.70;101081.59;4980274;28;20043;-46
2023/06/06 02:22:21;;;;;;;9.63;2.50;;;;;;;11.81;66.06;101071.22;4978187;28;20051;-48
2023/06/06 02:24:49;;;;;;;5.93;2.30;;;;;;;11.79;65.62;101075.50;4979688;28;20054;-50
2023/06/06 02:27:16;;;;;;;6.68;1.88;;;;;;;11.78;66.19;101070.31;4977926;28;21025;-45
2023/06/06 02:29:43;;;;;;;7.38;2.67;;;;;;;11.79;65.88;101078.09;4980166;28;20043;-45
2023/06/06 02:32:10;;;;;;;4.82;2.30;;;;;;;11.78;64.96;101076.38;4976765;28;20050;-50
2023/06/06 02:34:37;;;;;;;6.18;2.38;;;;;;;11.79;65.30;101078.09;4977846;28;20062;-49
2023/06/06 02:37:07;;;;;;;5.85;2.55;;;;;;;11.75;66.21;101081.53;4978558;28;20045;-49
2023/06/06 02:39:35;;;;;;;7.75;3.20;;;;;;;11.76;65.23;101078.06;4979370;28;20042;-46
2023/06/06 02:42:03;;;;;;;8.02;2.25;;;;;;;11.76;64.94;101078.06;4981394;28;20054;-51
2023/06/06 02:44:30;;;;;;;10.15;2.25;;;;;;;11.74;65.46;101076.31;4979986;28;20054;-48
2023/06/06 02:46:57;;;;;;;4.20;2.10;;;;;;;11.69;65.50;101071.13;4980931;28;20046;-46
2023/06/06 02:49:24;;;;;;;6.88;2.33;;;;;;;11.69;65.82;101065.94;4981233;28;20046;-45
2023/06/06 02:51:50;;;;;;;6.13;2.58;;;;;;;11.69;65.77;101066.78;4968733;28;20059;-48
2023/06/06 02:54:17;;;;;;;6.60;2.40;;;;;;;11.69;65.79;101065.94;4967870;28;20058;-46
2023/06/06 02:56:44;;;;;;;7.13;2.13;;;;;;;11.69;65.55;101071.13;4968644;28;20042;-47
2023/06/06 02:59:10;;;;;;;6.18;2.55;;;;;;;11.72;65.61;101065.06;4968589;28;20488;-48
2023/06/06 03:01:44;;;;;;;4.75;2.17;;;;;;;11.72;65.69;101065.06;4967941;28;20058;-49
2023/06/06 03:04:12;;;;;;;8.98;2.78;;;;;;;11.73;65.91;101062.50;4972253;28;20043;-45
2023/06/06 03:06:40;;;;;;;6.55;2.53;;;;;;;11.73;66.39;101057.31;4965190;28;20078;-48
2023/06/06 03:09:09;;;;;;;5.32;2.42;;;;;;;11.73;65.30;101054.72;4967485;28;20041;-47
2023/06/06 03:11:36;;;;;;;4.60;2.08;;;;;;;11.74;66.21;101058.16;4964968;28;20050;-47
2023/06/06 03:14:02;;;;;;;7.47;2.28;;;;;;;11.74;65.49;101056.44;4966331;28;20148;-47
2023/06/06 03:16:30;;;;;;;5.88;2.25;;;;;;;11.74;66.39;101051.25;4967379;28;20582;-46
2023/06/06 03:18:57;;;;;;;7.28;2.72;;;;;;;11.69;65.64;101053.78;4961953;28;20422;-44
2023/06/06 03:21:24;;;;;;;4.25;2.42;;;;;;;11.69;66.24;101046.00;4967704;28;20058;-47
2023/06/06 03:23:50;;;;;;;4.93;2.15;;;;;;;11.67;66.21;101052.94;4965083;28;20087;-47
2023/06/06 03:26:19;;;;;;;5.05;2.08;;;;;;;11.67;66.22;101057.25;4965638;28;20054;-49
2023/06/06 03:28:46;;;;;;;5.20;2.65;;;;;;;11.66;66.61;101045.13;4967273;28;20459;-49
2023/06/06 03:31:13;;;;;;;4.88;2.22;;;;;;;11.64;66.02;101054.63;4964942;28;20061;-51
2023/06/06 03:33:40;;;;;;;7.43;2.53;;;;;;;11.62;66.64;101043.38;4967335;28;20069;-48
2023/06/06 03:36:07;;;;;;;5.78;2.22;;;;;;;11.64;65.72;101049.44;4965896;28;20687;-49
2023/06/06 03:38:34;;;;;;;7.35;3.67;;;;;;;11.63;65.61;101037.31;4963827;28;20379;-46
2023/06/06 03:41:02;;;;;;;7.53;2.50;;;;;;;11.64;65.86;101041.63;4965661;28;20058;-50
2023/06/06 03:43:30;;;;;;;4.97;2.33;;;;;;;11.64;66.78;101046.81;4965808;28;20133;-47
2023/06/06 03:45:57;;;;;;;7.85;2.58;;;;;;;11.63;66.52;101050.28;4968254;28;20043;-47
2023/06/06 03:48:24;;;;;;;4.13;2.22;;;;;;;11.61;65.83;101051.97;4966456;28;20062;-49
2023/06/06 03:50:50;;;;;;;7.07;2.75;;;;;;;11.61;66.63;101057.16;4967005;28;20138;-44
2023/06/06 03:53:17;;;;;;;9.88;2.28;;;;;;;11.60;67.26;101055.44;4966577;28;20050;-48
2023/06/06 03:55:44;;;;;;;5.60;2.85;;;;;;;11.60;66.04;101060.63;4965933;28;20062;-47
2023/06/06 03:58:13;;;;;;;5.97;2.63;;;;;;;11.59;66.28;101058.91;4967958;28;20054;-46
2023/06/06 04:00:40;;;;;;;6.40;3.03;;;;;;;11.56;66.08;101058.00;4965372;28;20126;-47
2023/06/06 04:03:07;;;;;;;9.27;2.42;;;;;;;11.56;66.46;101060.59;4958852;28;20054;-46
2023/06/06 04:05:34;;;;;;;6.32;2.45;;;;;;;11.54;66.43;101062.31;4973079;28;20055;-46
2023/06/06 04:08:02;;;;;;;7.85;2.35;;;;;;;11.53;67.29;101064.91;4967464;28;20047;-49
2023/06/06 04:10:28;;;;;;;4.30;2.10;;;;;;;11.51;67.35;101059.69;4967935;28;20142;-49
2023/06/06 04:12:55;;;;;;;7.85;2.53;;;;;;;11.52;66.30;101058.84;4961280;28;20050;-47
2023/06/06 04:15:22;;;;;;;6.25;2.20;;;;;;;11.53;67.14;101055.41;4965406;28;20510;-50
2023/06/06 04:17:48;;;;;;;6.13;2.20;;;;;;;11.53;67.08;101060.59;4966645;28;20672;-46
2023/06/06 04:20:15;;;;;;;4.35;1.90;;;;;;;11.54;67.38;101056.25;4967172;28;20499;-46
2023/06/06 04:22:43;;;;;;;4.28;2.25;;;;;;;11.54;66.24;101062.31;4966702;28;20047;-52
2023/06/06 04:25:12;;;;;;;6.15;1.95;;;;;;;11.54;67.20;101057.13;4965409;28;20046;-49
2023/06/06 04:27:40;;;;;;;5.20;2.55;;;;;;;11.53;67.24;101055.41;4966651;28;20047;-46
2023/06/06 04:30:12;;;;;;;7.22;2.55;;;;;;;11.53;66.18;101050.22;4964636;28;20057;-50
2023/06/06 04:32:40;;;;;;;7.97;2.10;;;;;;;11.51;66.76;101057.09;4965468;28;20055;-47
2023/06/06 04:35:09;;;;;;;3.80;1.85;;;;;;;11.52;67.67;101052.78;4962495;28;20051;-51
2023/06/06 04:37:37;;;;;;;4.43;2.22;;;;;;;11.51;66.80;101062.28;4965261;28;20063;-50
2023/06/06 04:40:06;;;;;;;5.78;3.13;;;;;;;11.50;67.58;101055.38;4961167;28;20411;-47
2023/06/06 04:42:35;;;;;;;7.55;3.58;;;;;;;11.49;66.81;101057.94;4964343;28;20620;-50
2023/06/06 04:45:03;;;;;;;8.00;2.30;;;;;;;11.47;66.72;101055.34;4962313;28;20047;-51
2023/06/06 04:47:31;;;;;;;5.20;2.53;;;;;;;11.50;66.79;101057.97;4962643;28;20064;-49
2023/06/06 04:49:59;;;;;;;4.55;2.42;;;;;;;11.51;67.94;101061.41;4965326;28;20073;-47
2023/06/06 04:52:25;;;;;;;6.63;2.20;;;;;;;11.51;66.68;101064.88;4964913;28;20049;-47
2023/06/06 04:54:55;;;;;;;5.68;2.30;;;;;;;11.51;66.63;101062.28;4963105;28;20050;-46
2023/06/06 04:57:23;;;;;;;4.03;2.17;;;;;;;11.51;67.38;101062.28;4960694;28;20483;-48
2023/06/06 04:59:52;;;;;;;7.80;2.85;;;;;;;11.51;67.52;101062.28;4965177;28;20509;-49
2023/06/06 05:02:21;;;;;;;3.90;2.33;;;;;;;11.52;67.50;101057.97;4959870;28;20047;-46
2023/06/06 05:04:52;;;;;;;3.85;2.33;;;;;;;11.53;67.62;101055.41;4967889;28;20154;-46
2023/06/06 05:07:24;;;;;;;5.32;2.22;;;;;;;11.52;66.89;101058.84;4961580;28;20043;-49
2023/06/06 05:09:52;;;;;;;5.55;1.67;;;;;;;11.53;67.81;101055.41;4965459;28;20050;-46
2023/06/06 05:12:19;;;;;;;5.43;2.10;;;;;;;11.53;66.62;101055.41;4963124;28;20130;-49
2023/06/06 05:14:46;;;;;;;5.90;1.80;;;;;;;11.50;67.24;101052.78;4967073;28;20145;-48
2023/06/06 05:17:20;;;;;;;7.07;2.10;;;;;;;11.49;68.13;101053.63;4966686;28;20055;-50
2023/06/06 05:19:47;;;;;;;3.63;1.52;;;;;;;11.48;67.34;101061.41;4961000;28;20098;-46
2023/06/06 05:22:14;;;;;;;3.72;2.10;;;;;;;11.50;67.40;101054.50;4965966;28;20046;-47
2023/06/06 05:24:42;;;;;;;5.00;1.70;;;;;;;11.52;67.39;101048.44;4966113;28;20050;-47
2023/06/06 05:27:09;;;;;;;4.35;1.98;;;;;;;11.52;66.84;101051.06;4958845;28;20766;-51
2023/06/06 05:29:36;;;;;;;5.90;2.30;;;;;;;11.54;67.52;101056.25;4965327;28;20062;-49
2023/06/06 05:32:03;;;;;;;3.15;1.50;;;;;;;11.55;66.94;101052.81;4964226;28;20124;-51
2023/06/06 05:34:30;;;;;;;6.45;2.53;;;;;;;11.54;66.95;101051.94;4964818;28;20051;-49
2023/06/06 05:36:57;;;;;;;4.43;1.70;;;;;;;11.59;67.14;101058.91;4963624;28;20050;-46
2023/06/06 05:39:24;;;;;;;3.70;1.75;;;;;;;11.56;67.25;101055.41;4961419;28;20054;-51
2023/06/06 05:41:54;;;;;;;5.50;2.40;;;;;;;11.59;68.23;101056.31;4963133;28;20061;-49
2023/06/06 05:44:22;;;;;;;4.72;2.15;;;;;;;11.62;68.00;101059.78;4964146;28;20057;-47
2023/06/06 05:46:54;;;;;;;4.32;2.13;;;;;;;11.66;66.74;101064.16;4963670;28;20049;-46
2023/06/06 05:49:23;;;;;;;5.78;1.63;;;;;;;11.66;67.01;101065.91;4964139;28;20126;-46
2023/06/06 05:51:50;;;;;;;7.18;2.75;;;;;;;11.65;68.10;101064.16;4963333;28;20403;-49
2023/06/06 05:54:17;;;;;;;3.50;1.77;;;;;;;11.62;67.32;101053.75;4962904;28;20050;-49
2023/06/06 05:56:44;;;;;;;4.22;1.83;;;;;;;11.64;67.72;101062.41;4966304;28;20043;-47
2023/06/06 05:59:11;;;;;;;3.83;1.83;;;;;;;11.64;66.92;101062.41;4945677;28;20054;-48
2023/06/06 06:01:39;;;;;;;4.47;1.77;;;;;;;11.61;66.98;101057.16;4955568;28;20054;-50
2023/06/06 06:04:07;;;;;;;6.57;2.22;;;;;;;11.61;67.48;101068.44;4963451;28;20109;-50
2023/06/06 06:06:37;;;;;;;5.93;1.73;;;;;;;11.62;66.95;101067.56;4967783;28;20136;-48
2023/06/06 06:09:05;;;;;;;4.15;1.80;;;;;;;11.62;67.63;101069.31;4970908;28;20047;-48
2023/06/06 06:11:32;;;;;;;5.10;2.38;;;;;;;11.64;67.26;101067.59;4957822;28;20577;-46
2023/06/06 06:13:59;;;;;;;4.35;1.40;;;;;;;11.68;68.00;101066.75;4965347;28;20050;-47
2023/06/06 06:16:25;;;;;;;5.72;1.90;;;;;;;11.69;66.81;101066.78;4960488;28;20059;-47
2023/06/06 06:18:52;;;;;;;5.80;1.92;;;;;;;11.70;66.94;101072.84;4958698;28;20134;-48
2023/06/06 06:21:19;;;;;;;6.15;2.33;;;;;;;11.72;67.40;101075.47;4967305;28;20089;-48
2023/06/06 06:23:48;;;;;;;5.22;1.80;;;;;;;11.73;68.16;101078.06;4966895;28;20051;-46
2023/06/06 06:26:15;;;;;;;3.90;1.83;;;;;;;11.77;67.06;101068.56;4967319;28;20046;-51
2023/06/06 06:28:42;;;;;;;4.22;1.70;;;;;;;11.80;68.04;101079.88;4966023;28;20055;-52
2023/06/06 06:31:09;;;;;;;4.35;1.55;;;;;;;11.81;68.30;101071.22;4960324;28;20058;-48
2023/06/06 06:33:36;;;;;;;5.30;1.42;;;;;;;11.86;66.96;101072.97;4967725;28;20073;-48
2023/06/06 06:36:04;;;;;;;3.67;2.17;;;;;;;11.90;67.74;101069.56;4962306;28;20050;-47
2023/06/06 06:38:31;;;;;;;4.60;1.67;;;;;;;11.91;67.65;101071.28;4962100;28;20070;-50
2023/06/06 06:40:57;;;;;;;5.95;1.58;;;;;;;11.94;66.84;101079.09;4965836;28;20054;-47
2023/06/06 06:43:24;;;;;;;4.50;1.90;;;;;;;11.93;66.87;101074.78;4964438;28;20051;-45
2023/06/06 06:45:50;;;;;;;5.22;1.88;;;;;;;11.99;67.52;101073.97;4964805;28;20054;-48
2023/06/06 06:48:17;;;;;;;4.28;1.70;;;;;;;12.03;66.38;101066.19;4964556;28;20047;-48
2023/06/06 06:50:45;;;;;;;4.22;1.75;;;;;;;12.02;67.57;101074.00;4967551;28;20052;-46
2023/06/06 06:53:13;;;;;;;4.25;1.92;;;;;;;12.02;67.56;101067.03;4962479;28;20055;-47
2023/06/06 06:55:41;;;;;;;3.60;1.50;;;;;;;12.01;67.82;101073.09;4965523;28;20117;-47
2023/06/06 06:58:07;;;;;;;4.20;1.60;;;;;;;12.03;66.69;101076.56;4965401;28;20580;-52
2023/06/06 07:00:34;;;;;;;3.55;1.83;;;;;;;12.04;66.44;101083.53;4961322;28;20053;-50
2023/06/06 07:03:03;;;;;;;3.42;1.42;;;;;;;12.08;67.62;101084.44;4961067;28;20051;-46
2023/06/06 07:05:32;;;;;;;4.45;1.58;;;;;;;12.05;67.54;101085.25;4959029;28;20061;-52
2023/06/06 07:07:59;;;;;;;4.53;1.42;;;;;;;12.06;67.35;101076.63;4960025;28;20113;-50
2023/06/06 07:10:28;;;;;;;3.10;1.95;;;;;;;12.09;67.77;101080.97;4962518;28;20082;-49
2023/06/06 07:12:56;;;;;;;6.20;2.88;;;;;;;12.10;66.83;101077.53;4952208;28;20628;-46
2023/06/06 07:15:23;;;;;;;4.18;2.20;;;;;;;12.15;67.46;101075.84;4945387;28;20180;-46
2023/06/06 07:17:50;;;;;;;4.57;2.75;;;;;;;12.20;67.39;101074.13;4968635;28;20459;-47
2023/06/06 07:20:21;;;;;;;4.35;2.58;;;;;;;12.18;66.67;101072.38;4961744;28;20439;-49
2023/06/06 07:22:49;;;;;;;2.88;1.48;;;;;;;12.20;66.39;101068.09;4967260;28;20065;-45
2023/06/06 07:25:16;;;;;;;3.50;1.25;;;;;;;12.25;67.84;101071.56;4960847;28;20798;-46
2023/06/06 07:27:43;;;;;;;3.63;2.05;;;;;;;12.29;67.25;101078.53;4961056;28;20050;-49
2023/06/06 07:30:14;;;;;;;3.88;1.60;;;;;;;12.26;66.91;101067.25;4957623;28;20519;-48
2023/06/06 07:32:42;;;;;;;4.13;1.42;;;;;;;12.32;67.42;101068.16;4958384;28;20554;-51
2023/06/06 07:35:11;;;;;;;4.45;1.58;;;;;;;12.37;66.28;101077.72;4960779;28;20050;-50
2023/06/06 07:37:39;;;;;;;3.42;2.35;;;;;;;12.42;66.27;101073.41;4964486;28;20415;-47
2023/06/06 07:40:08;;;;;;;4.40;1.92;;;;;;;12.47;66.10;101080.38;4962410;28;20069;-50
2023/06/06 07:42:35;;;;;;;5.32;1.50;;;;;;;12.55;66.90;101075.22;4963815;28;20053;-48
2023/06/06 07:45:03;;;;;;;3.13;1.70;;;;;;;12.59;67.17;101071.78;4958889;28;20047;-46
2023/06/06 07:47:30;;;;;;;4.45;1.48;;;;;;;12.66;67.00;101079.63;4966746;28;20066;-47
2023/06/06 07:49:57;;;;;;;4.32;1.35;;;;;;;12.66;66.25;101082.22;4960792;28;20042;-49
2023/06/06 07:52:25;;;;;;;4.38;1.92;;;;;;;12.63;66.70;101071.81;4966818;28;20053;-45
2023/06/06 07:54:52;;;;;;;3.80;1.60;;;;;;;12.59;65.75;101073.50;4965932;28;20050;-48
2023/06/06 07:57:19;;;;;;;6.00;1.88;;;;;;;12.64;65.88;101076.13;4967421;28;20183;-45
2023/06/06 07:59:46;;;;;;;2.78;1.42;;;;;;;12.63;65.88;101077.00;4964760;28;20046;-49
2023/06/06 08:02:14;;;;;;;3.92;1.58;;;;;;;12.65;65.73;101075.25;4967836;28;20074;-50
2023/06/06 08:04:45;;;;;;;3.95;1.65;;;;;;;12.61;65.44;101074.38;4967295;28;20050;-46
2023/06/06 08:07:14;;;;;;;3.45;1.98;;;;;;;12.65;66.40;101080.47;4967752;28;20046;-47
2023/06/06 08:09:42;;;;;;;2.75;1.20;;;;;;;12.68;66.25;101081.38;4965889;28;20078;-46
2023/06/06 08:12:10;;;;;;;4.75;1.80;;;;;;;12.68;66.30;101075.28;4962686;28;20126;-47
2023/06/06 08:14:37;;;;;;;2.63;1.20;;;;;;;12.72;65.74;101082.22;4967062;28;20058;-48
2023/06/06 08:17:06;;;;;;;4.35;1.77;;;;;;;12.72;66.59;101074.44;4963893;28;20047;-46
2023/06/06 08:19:35;;;;;;;4.82;1.48;;;;;;;12.71;65.51;101077.91;4964967;28;20530;-46
2023/06/06 08:22:02;;;;;;;3.95;2.35;;;;;;;12.72;65.42;101077.03;4966742;28;20414;-46
2023/06/06 08:24:29;;;;;;;3.05;1.35;;;;;;;12.72;66.35;101082.22;4965525;28;20050;-46
2023/06/06 08:26:57;;;;;;;4.10;1.60;;;;;;;12.72;65.95;101079.63;4962932;28;20059;-46
2023/06/06 08:29:23;;;;;;;5.93;2.00;;;;;;;12.72;66.31;101072.72;4964822;28;20082;-51
2023/06/06 08:31:52;;;;;;;3.75;2.45;;;;;;;12.72;66.52;101077.03;4960174;28;20518;-46
2023/06/06 08:34:19;;;;;;;4.90;2.03;;;;;;;12.70;65.75;101084.81;4963420;28;20051;-50
2023/06/06 08:36:47;;;;;;;3.38;1.85;;;;;;;12.69;67.07;101087.41;4963256;28;20059;-46
2023/06/06 08:39:15;;;;;;;4.53;1.83;;;;;;;12.69;66.09;101077.00;4962336;28;20080;-51
2023/06/06 08:41:53;;;;;;;4.95;1.77;;;;;;;12.70;66.60;101084.81;4966357;28;20049;-49
2023/06/06 08:44:22;;;;;;;3.72;1.90;;;;;;;12.77;66.84;101080.50;4970331;28;20050;-52
2023/06/06 08:46:55;;;;;;;4.25;1.67;;;;;;;12.80;66.67;101090.94;4964441;28;20047;-49
2023/06/06 08:49:21;;;;;;;4.13;1.42;;;;;;;12.88;65.68;101093.59;4959802;28;20078;-51
2023/06/06 08:51:49;;;;;;;4.07;2.67;;;;;;;12.96;65.65;101091.00;4959208;28;20403;-48
2023/06/06 08:54:18;;;;;;;2.97;1.45;;;;;;;13.01;65.86;101089.31;4961992;28;20043;-50
2023/06/06 08:56:46;;;;;;;4.05;2.35;;;;;;;13.08;66.15;101091.03;4963397;28;20094;-49
2023/06/06 08:59:14;;;;;;;3.40;1.45;;;;;;;13.06;65.49;101091.91;4957395;28;20149;-48
2023/06/06 09:01:41;;;;;;;5.28;1.83;;;;;;;13.07;64.99;101091.91;4953256;28;20418;-48
2023/06/06 09:04:08;;;;;;;4.00;1.85;;;;;;;13.11;64.92;101096.25;4948350;28;20045;-49
2023/06/06 09:06:38;;;;;;;4.50;1.70;;;;;;;13.21;65.62;101091.09;4966000;28;20133;-50
2023/06/06 09:09:07;;;;;;;5.78;1.85;;;;;;;13.26;64.32;101094.59;4971379;28;20043;-47
2023/06/06 09:11:34;;;;;;;4.03;1.90;;;;;;;13.36;65.71;101100.69;4964749;28;20072;-47
2023/06/06 09:14:01;;;;;;;4.18;1.75;;;;;;;13.39;64.84;101100.69;4962904;28;20051;-51
2023/06/06 09:16:28;;;;;;;4.45;1.80;;;;;;;13.41;64.47;101109.34;4960024;28;20058;-48
2023/06/06 09:18:57;;;;;;;4.75;1.45;;;;;;;13.43;65.12;101101.56;4965263;28;20077;-46
2023/06/06 09:21:29;;;;;;;3.53;2.00;;;;;;;13.44;64.06;101100.72;4962642;28;20077;-51
2023/06/06 09:24:00;;;;;;;3.13;1.35;;;;;;;13.46;63.81;101098.97;4960630;28;20051;-52
2023/06/06 09:26:28;;;;;;;4.80;1.90;;;;;;;13.37;64.41;101092.88;4967707;28;20122;-52
2023/06/06 09:28:56;;;;;;;2.95;1.35;;;;;;;13.39;64.80;101095.50;4952151;28;20688;-47
2023/06/06 09:33:59;;;;;;;3.75;2.80;;;;;;;13.45;64.65;101095.47;5027296;28;20403;-48
2023/06/06 09:36:28;;;;;;;3.63;2.80;;;;;;;13.42;64.06;101105.03;4995486;28;20100;-49
2023/06/06 09:39:05;;;;;;;4.38;2.35;;;;;;;13.40;64.38;101106.78;4983310;28;20508;-47
2023/06/06 09:41:40;;;;;;;3.70;2.20;;;;;;;13.42;64.45;101108.50;4988745;28;20107;-49
2023/06/06 09:44:24;;;;;;;5.88;3.00;;;;;;;13.36;64.09;101106.75;5001921;28;20077;-48
2023/06/06 09:47:00;;;;;;;4.45;1.50;;;;;;;13.42;65.04;101105.91;4984039;28;20677;-49
2023/06/06 09:49:35;;;;;;;4.70;2.53;;;;;;;13.47;65.28;101108.50;4992911;28;20129;-49
2023/06/06 09:52:03;;;;;;;5.90;2.15;;;;;;;13.58;63.98;101105.97;5001816;28;20039;-47
2023/06/06 09:54:31;;;;;;;4.82;2.75;;;;;;;13.57;63.79;101110.31;4996548;28;20056;-46
2023/06/06 09:56:58;;;;;;;5.43;2.65;;;;;;;13.60;64.45;101115.53;5002623;28;20177;-46
2023/06/06 09:59:25;;;;;;;5.78;3.53;;;;;;;13.67;64.40;101119.00;5012008;28;20046;-49
2023/06/06 10:01:57;;;;;;;3.25;2.25;;;;;;;13.68;64.06;101118.13;4998164;28;20050;-47
2023/06/06 10:04:25;;;;;;;4.18;2.55;;;;;;;13.70;63.73;101115.53;5003132;28;20071;-46
2023/06/06 10:06:54;;;;;;;5.05;3.10;;;;;;;13.72;64.39;101125.06;4999758;28;20141;-47
2023/06/06 10:09:22;;;;;;;4.85;3.45;;;;;;;13.79;63.85;101118.16;5005260;28;20050;-50
2023/06/06 10:11:49;;;;;;;5.00;2.65;;;;;;;13.81;63.44;101113.81;5005941;28;20065;-47
2023/06/06 10:14:17;;;;;;;4.22;2.63;;;;;;;13.80;63.11;101112.06;4997651;28;20046;-46
2023/06/06 10:16:43;;;;;;;3.53;2.47;;;;;;;13.91;63.23;101114.69;5001378;28;20604;-47
2023/06/06 10:19:13;;;;;;;5.22;2.80;;;;;;;13.96;63.59;101112.09;4993784;28;20054;-46
2023/06/06 10:21:41;;;;;;;3.47;1.90;;;;;;;13.96;63.27;101114.69;4995090;28;20053;-47
2023/06/06 10:24:07;;;;;;;5.32;3.00;;;;;;;13.97;63.50;101108.59;5004127;28;20056;-48
2023/06/06 10:26:51;;;;;;;3.67;2.22;;;;;;;14.01;62.97;101111.22;4998739;28;20061;-50
2023/06/06 10:32:03;;;;;;;3.00;1.45;;;;;;;14.17;63.32;101115.53;5021569;28;20413;-48
2023/06/06 10:34:37;;;;;;;4.63;1.73;;;;;;;14.21;63.16;101106.84;5016943;28;20061;-49
2023/06/06 10:37:22;;;;;;;3.00;1.38;;;;;;;14.18;63.25;101104.28;5018897;28;20058;-45
2023/06/06 10:40:00;;;;;;;2.55;1.27;;;;;;;14.17;62.99;101099.91;5009088;28;20062;-46
2023/06/06 10:42:42;;;;;;;3.08;1.08;;;;;;;14.17;62.85;101094.69;5013838;28;20053;-48
2023/06/06 10:45:09;;;;;;;3.83;1.50;;;;;;;14.25;62.79;101093.81;5020199;28;20049;-49
2023/06/06 10:47:42;;;;;;;6.13;1.42;;;;;;;14.25;62.70;101092.94;5019597;28;20065;-45
2023/06/06 10:53:08;;;;;;;3.00;1.42;;;;;;;14.20;62.52;101084.28;5036279;27;20406;-46
2023/06/06 11:00:59;;;;;;;3.30;1.42;;;;;;;14.44;63.02;101077.28;5043808;27;21051;-46
2023/06/06 11:03:42;;;;;;;2.58;1.10;;;;;;;14.58;62.71;101070.31;5006792;28;20118;-45
2023/06/06 11:06:12;;;;;;;3.47;1.58;;;;;;;14.75;62.18;101075.47;5018964;28;20046;-47
2023/06/06 11:14:01;;;;;;;3.53;1.70;;;;;;;15.06;60.96;101079.69;5027096;27;20417;-49
2023/06/06 11:19:19;;;;;;;3.33;1.50;;;;;;;14.96;61.71;101085.84;5052033;27;20458;-48
2023/06/06 11:21:49;;;;;;;3.50;1.83;;;;;;;15.07;61.74;101084.06;5018753;28;20046;-50
2023/06/06 11:24:18;;;;;;;2.60;1.10;;;;;;;15.13;61.63;101084.03;5023044;28;20053;-50
2023/06/06 11:26:47;;;;;;;2.90;1.48;;;;;;;15.15;61.67;101084.91;5019147;28;20548;-46
2023/06/06 11:29:14;;;;;;;3.05;1.13;;;;;;;15.09;61.64;101066.66;5040013;28;20045;-46
2023/06/06 11:31:41;;;;;;;3.40;1.48;;;;;;;15.19;62.03;101071.84;5027467;28;20069;-47
2023/06/06 11:34:11;;;;;;;5.78;1.65;;;;;;;15.39;61.69;101075.19;5025245;28;20076;-54
2023/06/06 11:36:39;;;;;;;3.90;2.42;;;;;;;15.54;61.16;101073.34;5028826;28;20060;-55
2023/06/06 11:39:10;;;;;;;2.67;1.60;;;;;;;15.65;61.34;101071.53;5032843;28;20041;-54
2023/06/06 11:41:41;;;;;;;3.03;1.17;;;;;;;15.71;60.67;101074.97;5036113;28;20049;-53
2023/06/06 11:44:08;;;;;;;4.93;2.67;;;;;;;15.68;60.67;101081.09;5036739;28;20347;-55
2023/06/06 11:46:53;;;;;;;4.28;2.05;;;;;;;15.65;60.37;101071.53;5031238;28;20107;-49
2023/06/06 11:49:21;;;;;;;3.45;1.63;;;;;;;15.69;60.61;101074.97;5031207;28;20048;-52
2023/06/06 11:51:58;;;;;;;4.32;1.80;;;;;;;15.64;60.03;101064.56;5028266;28;20141;-54
2023/06/06 11:54:27;;;;;;;2.70;1.55;;;;;;;15.65;60.16;101060.22;5032274;28;20115;-57